TOURFACTS.DK  
Stats and Facts from Tour de France.

Tour de France 2018 starts in 202 days
  Riders   Stages   Teams   Summits   Yearly  


 
Search by year

 2017 - St. 21:  14824 starters.
  5132 different riders.
  635 teams.
  2232 stages.
  454 restdays.
  439589.60 km.
  5653 abandonnees.


Top 3
Christopher Froome86:20:55
Rigoberto Uran86:21:49
Romain Bardet86:23:15
Warren Barguil169 pt.
Primoz Roglic80 pt.
Thomas De Gendt64 pt.
Michael Matthews359 pt.
André Greipel234 pt.
Edvald Boasson Hagen220 pt.
Simon Yates86:27:09
Louis Meintjes86:29:15
Emanuel Buchmann86:54:16
Facts from Tour de France 2013
  |   Stages.  |   Stage winners.  |   Days in yellow  |   Average speed.  |   Route.  |   Teams.  |   All riders.  |   Rookies.  |   Withdrawls.  |  

  |   GC.  |   Polka  |   Green  |   White  |   Summits. (In tour)  |   Summits. (Points)  |   Miscellaneous.  |  

Stage 14 on 13 - 07 - 2013
         Owning:    Christopher Froome    
Pick a stage:  1 2 3 4 5 6 7 8 9 10 11 12 13 14 15 16 17 18 19 20 21
  Saint-Pourçain-sur-SiouleLyon | Dist: 191.00 km.
Cat: 4Côte de MarcignyGERSimon Geschke
1 point
 
Cat: 4Côte de la Croix CouverteBELJan Bakelants
1 point
 
Cat: 3Côte de Thizy-les-BourgsFRABlel Kadri
2 points
 
Cat: 3Col du PilonFRABlel Kadri
2 points
 
Cat: 4Côte de LozanneGERJens Voigt
1 point
 
Cat: 4Côte de la DuchèreSUIMichael Albasini
1 point
 
Cat: 4Côte de la Croix RousseFRAJulien Simon
1 point
 

Average speed for all riders in stage:  43,738 km./hr.
    Place:Name:Team:Time:Km/h:
ITAMatteo TrentinBELOmega Pharma – Quick Step04:15:11  +  00:00:00=44,909 
SUIMichael AlbasiniAUSOrica - GreenEDGE04:15:11  +  00:00:00=44,909 
USAAndrew TalanskyUSAGarmin Sharp04:15:11  +  00:00:00=44,909 
4 ESPJosé Joaquin RojasESPMovistar Team04:15:11  +  00:00:00=44,909 
5 ESPEgoitz GarciaFRACofidis – Solutions Crédits04:15:11  +  00:00:00=44,909 
6 DENLars BakBELLotto-Belisol Team04:15:11  +  00:00:00=44,909 
7 GERSimon GeschkeNLDArgos–Shimano04:15:11  +  00:00:00=44,909 
8 FRAArthur VichotFRAFDJ.fr04:15:11  +  00:00:00=44,909 
9 RUSPavel BruttRUSTeam Katusha04:15:11  +  00:00:00=44,909 
10 FRACyril GautierFRATeam Europcar04:15:11  +  00:00:00=44,909 
11 FRAJulien SimonFRASojasun04:15:11  +  00:00:00=44,909 
12 BELJan BakelantsLUXRadioShack Leopard04:15:11  +  00:00:00=44,909 
13 FRABlel KadriFRAAg2r La Mondiale04:15:21  +  00:00:10=44,880 
14 GERMarcus BurghardtUSABMC Racing Team04:15:21  +  00:00:10=44,880 
15 ESPImanol ErvitiESPMovistar Team04:15:57  +  00:00:46=44,774 
16 USATejay Van GarderenUSABMC Racing Team04:16:46  +  00:01:35=44,632 
17 GERJens VoigtLUXRadioShack Leopard04:19:42  +  00:04:31=44,128 
18 MLTDavid MillarUSAGarmin Sharp04:19:42  +  00:04:31=44,128 
19 ENGIan StannardGBRSky Procycling04:22:28  +  00:07:17=43,663 
20 BLRKanstantin SivtsovGBRSky Procycling04:22:28  +  00:07:17=43,663 
21 IOMPeter KennaughGBRSky Procycling04:22:28  +  00:07:17=43,663 
22 KENChristopher FroomeGBRSky Procycling04:22:28  +  00:07:17=43,663 
23 ITAMatteo TosattoDNKTeam Saxo-Tinkoff04:22:28  +  00:07:17=43,663 
24 ESPAlberto ContadorDNKTeam Saxo-Tinkoff04:22:28  +  00:07:17=43,663 
25 AUSRichie PorteGBRSky Procycling04:22:28  +  00:07:17=43,663 
26 ITADaniele BennatiDNKTeam Saxo-Tinkoff04:22:28  +  00:07:17=43,663 
27 NEDRobert GesinkNLDBelkin Pro Cycling04:22:28  +  00:07:17=43,663 
28 CZERoman KreuzigerDNKTeam Saxo-Tinkoff04:22:28  +  00:07:17=43,663 
29 NEDBauke MollemaNLDBelkin Pro Cycling04:22:28  +  00:07:17=43,663 
30 ESPJonathan CastroviejoESPMovistar Team04:22:28  +  00:07:17=43,663 
31 ESPAlejandro ValverdeESPMovistar Team04:22:28  +  00:07:17=43,663 
32 FRASébastien MinardFRAAg2r La Mondiale04:22:28  +  00:07:17=43,663 
33 AUSMichael RogersDNKTeam Saxo-Tinkoff04:22:28  +  00:07:17=43,663 
34 COLNairo QuintanaESPMovistar Team04:22:28  +  00:07:17=43,663 
35 NEDLars BoomNLDBelkin Pro Cycling04:22:28  +  00:07:17=43,663 
36 FRANicolas RocheDNKTeam Saxo-Tinkoff04:22:28  +  00:07:17=43,663 
37 ITAFrancesco GavazziKAZAstana Pro Team04:22:28  +  00:07:17=43,663 
38 CRCAndrey AmadorESPMovistar Team04:22:28  +  00:07:17=43,663 
39 FRASamuel DumoulinFRAAg2r La Mondiale04:22:28  +  00:07:17=43,663 
40 FRAChristophe RiblonFRAAg2r La Mondiale04:22:28  +  00:07:17=43,663 
41 FRAHubert DupontFRAAg2r La Mondiale04:22:28  +  00:07:17=43,663 
42 SUIJakob FuglsangKAZAstana Pro Team04:22:28  +  00:07:17=43,663 
43 AUSCadel EvansUSABMC Racing Team04:22:28  +  00:07:17=43,663 
44 BELPhilippe GilbertUSABMC Racing Team04:22:28  +  00:07:17=43,663 
45 GERAndré GreipelBELLotto-Belisol Team04:22:28  +  00:07:17=43,663 
46 GERMarcel SiebergBELLotto-Belisol Team04:22:28  +  00:07:17=43,663 
47 AUSStuart O'GradyAUSOrica - GreenEDGE04:22:28  +  00:07:17=43,663 
48 ESPJoaquim RodriguezRUSTeam Katusha04:22:28  +  00:07:17=43,663 
49 ESPRuben PerezESPEuskaltel - Euskadi04:22:28  +  00:07:17=43,663 
50 ENGDaniel MartinUSAGarmin Sharp04:22:28  +  00:07:17=43,663 
51 BELMaxime MonfortLUXRadioShack Leopard04:22:28  +  00:07:17=43,663 
52 NEDRoy CurversNLDArgos–Shimano04:22:28  +  00:07:17=43,663 
53 NZLJack BauerUSAGarmin Sharp04:22:28  +  00:07:17=43,663 
54 GERJohannes FröhlingerNLDArgos–Shimano04:22:28  +  00:07:17=43,663 
55 USATom DanielsonUSAGarmin Sharp04:22:28  +  00:07:17=43,663 
56 FRAJean-Christophe PeraudFRAAg2r La Mondiale04:22:28  +  00:07:17=43,663 
57 ITADavide MalacarneFRATeam Europcar04:22:28  +  00:07:17=43,663 
58 NEDWout PoelsNLDVacansoleil - DCM04:22:28  +  00:07:17=43,663 
59 NEDTom DumoulinNLDArgos–Shimano04:22:28  +  00:07:17=43,663 
60 ITARoberto FerrariITALampre-Merida04:22:28  +  00:07:17=43,663 
61 ESPDaniel NavarroFRACofidis – Solutions Crédits04:22:28  +  00:07:17=43,663 
62 RUSYury TrofimovRUSTeam Katusha04:22:28  +  00:07:17=43,663 
63 FRAChristophe Le MevelFRACofidis – Solutions Crédits04:22:28  +  00:07:17=43,663 
64 LUXLaurent DidierLUXRadioShack Leopard04:22:28  +  00:07:17=43,663 
65 BELJürgen RoelandtsBELLotto-Belisol Team04:22:28  +  00:07:17=43,663 
66 SUISteve MorabitoUSABMC Racing Team04:22:28  +  00:07:17=43,663 
67 FRARudy MolardFRACofidis – Solutions Crédits04:22:28  +  00:07:17=43,663 
68 BLRAliaksandr KuchynskiRUSTeam Katusha04:22:28  +  00:07:17=43,663 
69 ESPJuan José OrozESPEuskaltel - Euskadi04:22:28  +  00:07:17=43,663 
70 URSRein TaaramäeFRACofidis – Solutions Crédits04:22:28  +  00:07:17=43,663 
71 ESPJuan LobatoESPEuskaltel - Euskadi04:22:28  +  00:07:17=43,663 
72 FRARomain BardetFRAAg2r La Mondiale04:22:28  +  00:07:17=43,663 
73 ESPMikel NieveESPEuskaltel - Euskadi04:22:28  +  00:07:17=43,663 
74 ESPMikel AstarlozaESPEuskaltel - Euskadi04:22:28  +  00:07:17=43,663 
75 SLOKristjan KorenITACannondale Pro Cycling04:22:28  +  00:07:17=43,663 
76 ITAManuel QuinziatoUSABMC Racing Team04:22:28  +  00:07:17=43,663 
77 POLMichal KwiatkowskiBELOmega Pharma – Quick Step04:22:28  +  00:07:17=43,663 
78 SVKPeter VelitsBELOmega Pharma – Quick Step04:22:28  +  00:07:17=43,663 
79 BELBart De ClercqBELLotto-Belisol Team04:22:28  +  00:07:17=43,663 
80 FRAJérôme PineauBELOmega Pharma – Quick Step04:22:28  +  00:07:17=43,663 
81 IOMMark CavendishBELOmega Pharma – Quick Step04:22:28  +  00:07:17=43,663 
82 BELGert SteegmansBELOmega Pharma – Quick Step04:22:28  +  00:07:17=43,663 
83 FRASylvain ChavanelBELOmega Pharma – Quick Step04:22:28  +  00:07:17=43,663 
84 ESPHaimar ZubeldiaLUXRadioShack Leopard04:22:28  +  00:07:17=43,663 
85 FRAMaxime MederelFRASojasun04:22:28  +  00:07:17=43,663 
86 ITAFabio SabatiniITACannondale Pro Cycling04:22:28  +  00:07:17=43,663 
87 AUSSimon ClarkeAUSOrica - GreenEDGE04:22:28  +  00:07:17=43,663 
88 USABrent BookwalterUSABMC Racing Team04:22:28  +  00:07:17=43,663 
89 AUSSimon GerransAUSOrica - GreenEDGE04:22:28  +  00:07:17=43,663 
90 RUSEduard VorganovRUSTeam Katusha04:22:28  +  00:07:17=43,663 
91 GERAndréas KlödenLUXRadioShack Leopard04:22:28  +  00:07:17=43,663 
92 NEDAlbert TimmerNLDArgos–Shimano04:22:28  +  00:07:17=43,663 
93 ESPJon Izaguirre InsaustiESPEuskaltel - Euskadi04:22:28  +  00:07:17=43,663 
94 LUXAndy SchleckLUXRadioShack Leopard04:22:28  +  00:07:17=43,663 
95 NEDKoen De KortNLDArgos–Shimano04:22:28  +  00:07:17=43,663 
96 POLMaciej BodnarITACannondale Pro Cycling04:22:28  +  00:07:17=43,663 
97 DENBrian VandborgITACannondale Pro Cycling04:22:28  +  00:07:17=43,663 
98 ESPLuis Angel MateFRACofidis – Solutions Crédits04:22:28  +  00:07:17=43,663 
99 ITAEnrico GasparottoKAZAstana Pro Team04:22:28  +  00:07:17=43,663 
100 NEDBoy van PoppelNLDVacansoleil - DCM04:22:28  +  00:07:17=43,663 
101 BELThomas De GendtNLDVacansoleil - DCM04:22:28  +  00:07:17=43,663 
102 NEDLaurens ten DamNLDBelkin Pro Cycling04:22:28  +  00:07:17=43,663 
103 NEDBram TankinkNLDBelkin Pro Cycling04:22:28  +  00:07:17=43,663 
104 AUSMatthew GossAUSOrica - GreenEDGE04:22:28  +  00:07:17=43,663 
105 SVKPeter SaganITACannondale Pro Cycling04:22:28  +  00:07:17=43,663 
106 URSGatis SmukulisRUSTeam Katusha04:22:28  +  00:07:17=43,663 
107 RSADaryl ImpeyAUSOrica - GreenEDGE04:22:28  +  00:07:17=43,663 
108 NEDDanny van PoppelNLDVacansoleil - DCM04:22:28  +  00:07:17=43,663 
109 FRAAmaël MoinardUSABMC Racing Team04:22:28  +  00:07:17=43,663 
110 ESPIgor AntonESPEuskaltel - Euskadi04:22:28  +  00:07:17=43,663 
111 COLJosé SerpaITALampre-Merida04:22:28  +  00:07:17=43,663 
112 FRAAlexis VuillermozFRASojasun04:22:28  +  00:07:17=43,663 
113 ESPMarkel IrizarLUXRadioShack Leopard04:22:28  +  00:07:17=43,663 
114 AUSAdam HansenBELLotto-Belisol Team04:22:28  +  00:07:17=43,663 
115 FRAPierrick FédrigoFRAFDJ.fr04:22:28  +  00:07:17=43,663 
116 FRAGuillaume LevarletFRACofidis – Solutions Crédits04:22:28  +  00:07:17=43,663 
117 ITAManuele MoriITALampre-Merida04:22:28  +  00:07:17=43,663 
118 NEDLieuwe WestraNLDVacansoleil - DCM04:22:28  +  00:07:17=43,663 
119 FRAJohn GadretFRAAg2r La Mondiale04:22:28  +  00:07:17=43,663 
120 PORRui CostaESPMovistar Team04:22:28  +  00:07:17=43,663 
121 ESPRubén PlazaESPMovistar Team04:22:28  +  00:07:17=43,663 
122 JPNYukiya ArashiroFRATeam Europcar04:22:28  +  00:07:17=43,663 
123 GERJohn DegenkolbNLDArgos–Shimano04:22:28  +  00:07:17=43,663 
124 GERMarcel KittelNLDArgos–Shimano04:22:28  +  00:07:17=43,663 
125 FRATony GallopinLUXRadioShack Leopard04:22:28  +  00:07:17=43,663 
126 ESPDaniel MorenoRUSTeam Katusha04:22:28  +  00:07:17=43,663 
127 ESPAlberto LosadaRUSTeam Katusha04:22:28  +  00:07:17=43,663 
128 ITADamiano CunegoITALampre-Merida04:22:28  +  00:07:17=43,663 
129 POLPrzemyslaw NiemiecITALampre-Merida04:22:28  +  00:07:17=43,663 
130 ITAAlan MarangoniITACannondale Pro Cycling04:22:28  +  00:07:17=43,663 
131 FRAPierre RollandFRATeam Europcar04:22:28  +  00:07:17=43,663 
132 NORAlexander KristoffRUSTeam Katusha04:22:28  +  00:07:17=43,663 
133 PORSergio PaulinhoDNKTeam Saxo-Tinkoff04:22:28  +  00:07:17=43,663 
134 FRABrice FeilluFRASojasun04:22:28  +  00:07:17=43,663 
135 FRARomain SicardESPEuskaltel - Euskadi04:22:28  +  00:07:17=43,663 
136 ITAMoreno MoserITACannondale Pro Cycling04:22:28  +  00:07:17=43,663 
137 FRAArnold JeannessonFRAFDJ.fr04:22:28  +  00:07:17=43,663 
138 FRAJean-Marc MarinoFRASojasun04:22:28  +  00:07:17=43,663 
139 FRAThibaut PinotFRAFDJ.fr04:22:28  +  00:07:17=43,663 
140 FRAWilliam BonnetFRAFDJ.fr04:22:28  +  00:07:17=43,663 
141 FRAAnthony DelaplaceFRASojasun04:22:28  +  00:07:17=43,663 
142 FRAJulien El FarèsFRASojasun04:22:28  +  00:07:17=43,663 
143 ESPJesus  HernandezDNKTeam Saxo-Tinkoff04:22:28  +  00:07:17=43,663 
144 AUSBrett LancasterAUSOrica - GreenEDGE04:22:28  +  00:07:17=43,663 
145 BELMaarten WynantsNLDBelkin Pro Cycling04:22:28  +  00:07:17=43,663 
146 ARGJuan Antonio FlechaNLDVacansoleil - DCM04:22:28  +  00:07:17=43,663 
147 FRAJérôme CoppelFRACofidis – Solutions Crédits04:22:28  +  00:07:17=43,663 
148 CANDavid VeilleuxFRATeam Europcar04:22:28  +  00:07:17=43,663 
149 BRAMurilo Antonio FischerFRAFDJ.fr04:22:28  +  00:07:17=43,663 
150 ITAElia FavilliITALampre-Merida04:22:28  +  00:07:17=43,663 
151 FRACyril LemoineFRASojasun04:22:28  +  00:07:17=43,663 
152 NORLars Petter NordhaugNLDBelkin Pro Cycling04:22:28  +  00:07:17=43,663 
153 KAZAssan BazayevKAZAstana Pro Team04:22:28  +  00:07:17=43,663 
154 GERTony MartinBELOmega Pharma – Quick Step04:22:28  +  00:07:17=43,663 
155 AUSCameron MeyerAUSOrica - GreenEDGE04:22:28  +  00:07:17=43,663 
156 CANSvein TuftAUSOrica - GreenEDGE04:22:28  +  00:07:17=43,663 
157 NZLGregory HendersonBELLotto-Belisol Team04:22:28  +  00:07:17=43,663 
158 KAZDmitriy MuravyevKAZAstana Pro Team04:22:28  +  00:07:17=43,663 
159 NEDNiki TerpstraBELOmega Pharma – Quick Step04:22:28  +  00:07:17=43,663 
160 FRAThomas VoecklerFRATeam Europcar04:22:28  +  00:07:17=43,663 
161 FRAYohann GèneFRATeam Europcar04:22:28  +  00:07:17=43,663 
162 ITADavide CimolaiITALampre-Merida04:22:28  +  00:07:17=43,663 
163 NEDJohnny HoogerlandNLDVacansoleil - DCM04:22:28  +  00:07:17=43,663 
164 FRAJérémy RoyFRAFDJ.fr04:22:28  +  00:07:17=43,663 
165 URSRamunas NavardauskasUSAGarmin Sharp04:22:28  +  00:07:17=43,663 
166 KAZAlexey LutsenkoKAZAstana Pro Team04:22:28  +  00:07:17=43,663 
167 FRAAlexandre GeniezFRAFDJ.fr04:22:28  +  00:07:17=43,663 
168 UZBSergey LagutinNLDVacansoleil - DCM04:22:28  +  00:07:17=43,663 
169 ESPGorka Izaguirre InsaustiESPEuskaltel - Euskadi04:22:28  +  00:07:17=43,663 
170 FRAJonathan HivertFRASojasun04:24:55  +  00:09:44=43,259 
171 CANRyder HesjedalUSAGarmin Sharp04:25:08  +  00:09:57=43,224 
172 BELSep VanmarckeNLDBelkin Pro Cycling04:25:33  +  00:10:22=43,156 
173 NEDTom LeezerNLDBelkin Pro Cycling04:25:33  +  00:10:22=43,156 
174 FRAKévin RezaFRATeam Europcar04:25:33  +  00:10:22=43,156 
175 FRAJérôme CousinFRATeam Europcar04:25:33  +  00:10:22=43,156 
176 BELKris BoeckmansNLDVacansoleil - DCM04:25:33  +  00:10:22=43,156 
177 ITAAlessandro De MarchiITACannondale Pro Cycling04:25:33  +  00:10:22=43,156 
178 NEDTom VeelersNLDArgos–Shimano04:25:33  +  00:10:22=43,156 
179 WALGeraint ThomasGBRSky Procycling04:25:33  +  00:10:22=43,156 
180 BELFrederik WillemsBELLotto-Belisol Team04:26:22  +  00:11:11=43,023 
181 ESPDavid LopezGBRSky Procycling04:26:22  +  00:11:11=43,023 


Todays birthdays.

1911  Pierre Janvier
1919  Miguel Gual
1925  Jacques Marinelli
1943  Domingo Perurena
1955  Antonio Londoño
1969  José Castelblanco
1972  Bingen Fernandez
1975  Thierry Loder